Time;durP1;ratioP1;P1;durP2;ratioP2;P2;SDS_P1;SDS_P2;PMS_P1;PMS_P2;Temp;Humidity;BMP_temperature;BMP_pressure;BME280_temperature;BME280_humidity;BME280_pressure;Samples;Min_cycle;Max_cycle;Signal;HPM_P1;HPM_P2
2022/03/31 00:00:22;;;;;;;11.40;9.80;;;;;;;7.14;71.49;98179.59;1088583;54;20038;-86
2022/03/31 00:01:27;;;;;;;13.40;11.02;;;;;;;7.09;71.90;98184.59;1088504;54;20034;-86
2022/03/31 00:02:28;;;;;;;12.90;10.93;;;;;;;7.09;71.99;98176.63;1088599;54;20035;-87
2022/03/31 00:03:32;;;;;;;15.50;11.00;;;;;;;6.98;72.16;98179.63;1088507;54;20102;-84
2022/03/31 00:05:41;;;;;;;12.52;10.13;;;;;;;6.98;72.36;98182.28;1088353;54;20050;-78
2022/03/31 00:06:42;;;;;;;13.88;10.77;;;;;;;6.90;72.40;98182.28;1088389;54;20038;-77
2022/03/31 00:07:51;;;;;;;12.30;10.38;;;;;;;6.90;72.36;98183.09;1088224;54;20038;-77
2022/03/31 00:08:55;;;;;;;12.88;10.10;;;;;;;6.81;73.16;98178.78;1088395;54;20038;-77
2022/03/31 00:09:57;;;;;;;13.05;10.95;;;;;;;6.80;73.00;98183.28;1088393;54;20014;-77
2022/03/31 00:11:02;;;;;;;13.65;11.20;;;;;;;6.77;73.06;98188.09;1088385;54;20078;-78
2022/03/31 00:12:05;;;;;;;11.98;9.77;;;;;;;6.82;72.62;98180.44;1088378;54;20053;-78
2022/03/31 00:13:11;;;;;;;12.07;9.77;;;;;;;6.89;72.52;98186.78;1088277;54;20078;-78
2022/03/31 00:14:15;;;;;;;12.55;10.68;;;;;;;6.87;72.78;98180.81;1088297;54;20042;-78
2022/03/31 00:15:20;;;;;;;13.00;10.68;;;;;;;6.79;72.97;98176.31;1088360;54;20037;-78
2022/03/31 00:16:25;;;;;;;13.02;10.73;;;;;;;6.81;73.00;98184.09;1088378;54;20031;-78
2022/03/31 00:17:26;;;;;;;12.52;10.63;;;;;;;6.80;72.96;98182.47;1088327;54;20042;-78
2022/03/31 00:18:33;;;;;;;13.88;10.68;;;;;;;6.72;73.00;98181.44;1088233;54;20035;-78
2022/03/31 00:19:35;;;;;;;11.35;9.05;;;;;;;6.84;72.82;98184.63;1088304;54;20038;-77
2022/03/31 00:20:39;;;;;;;12.02;9.63;;;;;;;6.89;72.76;98180.63;1088330;54;20054;-77
2022/03/31 00:21:41;;;;;;;13.50;10.68;;;;;;;6.91;72.39;98181.28;1088363;54;20031;-78
2022/03/31 00:22:45;;;;;;;11.60;9.35;;;;;;;6.95;72.40;98186.09;1088289;54;20026;-78
2022/03/31 00:23:50;;;;;;;11.32;9.32;;;;;;;6.98;72.39;98190.25;1088335;54;20037;-78
2022/03/31 00:24:51;;;;;;;12.02;9.70;;;;;;;6.94;72.47;98187.09;1088290;54;20034;-78
2022/03/31 00:25:56;;;;;;;12.43;10.13;;;;;;;6.91;72.51;98179.44;1088374;54;20042;-79
2022/03/31 00:26:58;;;;;;;12.55;10.07;;;;;;;6.91;72.17;98190.06;1088374;54;20034;-78
2022/03/31 00:28:03;;;;;;;12.73;10.65;;;;;;;6.78;72.67;98184.44;1088281;54;20034;-78
2022/03/31 00:29:05;;;;;;;12.63;9.73;;;;;;;6.78;72.75;98189.75;1088336;54;20034;-78
2022/03/31 00:30:14;;;;;;;13.85;11.45;;;;;;;6.71;73.10;98178.97;1088358;54;20031;-78
2022/03/31 00:31:16;;;;;;;16.65;11.80;;;;;;;6.69;72.90;98178.28;1088349;54;20038;-77
2022/03/31 00:32:21;;;;;;;13.73;10.73;;;;;;;6.61;72.86;98176.50;1092897;39;20916;-78
2022/03/31 00:33:25;;;;;;;13.93;10.70;;;;;;;6.63;72.86;98182.44;1088292;54;20023;-78
2022/03/31 00:34:27;;;;;;;12.88;10.65;;;;;;;6.59;73.11;98183.78;1088272;54;20776;-77
2022/03/31 00:35:31;;;;;;;13.35;11.60;;;;;;;6.56;73.04;98181.44;1088387;54;20030;-77
2022/03/31 00:36:33;;;;;;;14.43;11.88;;;;;;;6.56;72.82;98170.81;1088341;54;20038;-78
2022/03/31 00:37:37;;;;;;;13.32;10.18;;;;;;;6.65;72.73;98175.16;1088268;54;20037;-78
2022/03/31 00:39:28;;;;;;;13.27;10.60;;;;;;;6.59;72.45;98185.59;1088278;54;20039;-77
2022/03/31 00:40:04;;;;;;;14.63;11.55;;;;;;;6.51;72.77;98179.28;1088318;54;20030;-78
2022/03/31 00:41:08;;;;;;;13.73;11.38;;;;;;;6.50;72.62;98187.44;1088371;54;20042;-78
2022/03/31 00:42:10;;;;;;;13.93;11.07;;;;;;;6.52;72.58;98177.44;1088326;54;20045;-78
2022/03/31 00:43:15;;;;;;;12.65;10.88;;;;;;;6.55;72.48;98180.63;1088186;54;20049;-79
2022/03/31 00:44:16;;;;;;;14.20;11.43;;;;;;;6.39;72.32;98181.44;1088300;54;20035;-78
2022/03/31 00:45:25;;;;;;;14.13;11.88;;;;;;;6.36;72.48;98179.09;1088376;54;20030;-78
2022/03/31 00:46:27;;;;;;;14.52;11.27;;;;;;;6.42;72.37;98182.09;1088348;54;20042;-78
2022/03/31 00:47:31;;;;;;;14.10;11.85;;;;;;;6.37;72.26;98178.09;1088332;54;20023;-80
2022/03/31 00:48:33;;;;;;;14.98;12.38;;;;;;;6.28;72.11;98183.56;1088248;54;20039;-78
2022/03/31 00:49:37;;;;;;;14.35;11.43;;;;;;;6.30;72.28;98185.06;1088328;54;20104;-78
2022/03/31 00:50:42;;;;;;;14.23;11.52;;;;;;;6.31;72.10;98178.78;1088312;54;20034;-78
2022/03/31 00:51:44;;;;;;;13.90;10.90;;;;;;;6.23;72.27;98192.03;1088109;54;20030;-78
2022/03/31 00:52:48;;;;;;;15.20;12.25;;;;;;;6.22;72.10;98187.72;1088281;54;20086;-79
2022/03/31 00:53:52;;;;;;;14.23;11.57;;;;;;;6.27;71.99;98184.56;1088312;54;20015;-78
2022/03/31 00:54:56;;;;;;;15.20;12.15;;;;;;;6.26;71.74;98182.91;1088291;54;20034;-78
2022/03/31 00:56:03;;;;;;;14.20;10.85;;;;;;;6.33;71.67;98176.75;1088319;54;20820;-79
2022/03/31 00:57:08;;;;;;;13.50;10.88;;;;;;;6.32;71.34;98180.44;1088326;54;20046;-79
2022/03/31 00:58:13;;;;;;;13.15;11.65;;;;;;;6.30;71.40;98182.41;1095918;39;20256;-79
2022/03/31 00:59:17;;;;;;;16.55;12.90;;;;;;;6.20;71.65;98181.72;1088235;54;20061;-78
2022/03/31 01:00:25;;;;;;;15.80;12.95;;;;;;;6.07;71.99;98177.69;1088274;54;20018;-79
2022/03/31 01:01:27;;;;;;;14.32;11.52;;;;;;;6.07;72.19;98183.00;1088312;54;20035;-79
2022/03/31 01:02:32;;;;;;;14.95;11.00;;;;;;;6.02;71.95;98182.69;1088317;54;20019;-79
2022/03/31 01:03:35;;;;;;;14.25;11.52;;;;;;;6.00;72.24;98173.22;1092837;39;20558;-78
2022/03/31 01:04:41;;;;;;;14.13;10.90;;;;;;;6.07;72.24;98166.28;1088239;54;20019;-78
2022/03/31 01:05:43;;;;;;;14.20;11.38;;;;;;;6.06;72.22;98162.78;1088278;54;20019;-79
2022/03/31 01:06:47;;;;;;;14.02;11.48;;;;;;;6.04;72.15;98171.91;1095882;31;20739;-79
2022/03/31 01:07:49;;;;;;;14.95;11.27;;;;;;;6.12;72.13;98168.44;1088293;54;20019;-79
2022/03/31 01:08:53;;;;;;;14.30;11.43;;;;;;;6.08;72.13;98159.97;1088269;54;20018;-78
2022/03/31 01:09:57;;;;;;;16.40;12.95;;;;;;;5.99;72.12;98161.78;1088333;54;20023;-78
2022/03/31 01:11:01;;;;;;;14.32;11.57;;;;;;;5.92;72.46;98158.06;1088351;54;20037;-78
2022/03/31 01:12:03;;;;;;;14.55;11.05;;;;;;;5.96;72.49;98164.69;1088345;54;20038;-77
2022/03/31 01:13:09;;;;;;;15.10;11.68;;;;;;;5.92;72.31;98158.06;1088272;54;20018;-78
2022/03/31 01:14:11;;;;;;;14.85;11.80;;;;;;;5.87;72.55;98155.06;1088214;54;20679;-78
2022/03/31 01:15:19;;;;;;;14.07;11.10;;;;;;;5.77;72.96;98149.91;1088349;54;20022;-78
2022/03/31 01:16:24;;;;;;;15.38;11.82;;;;;;;5.79;72.75;98153.22;1088332;54;20022;-78
2022/03/31 01:17:28;;;;;;;16.35;12.57;;;;;;;5.75;72.96;98150.06;1088347;54;20030;-78
2022/03/31 01:18:29;;;;;;;15.38;12.07;;;;;;;5.73;73.07;98152.06;1088296;54;20047;-79
2022/03/31 01:19:34;;;;;;;14.15;11.95;;;;;;;5.71;73.14;98146.06;1091802;39;20641;-80
2022/03/31 01:20:35;;;;;;;15.02;11.60;;;;;;;5.76;72.85;98142.94;1088265;54;20022;-79
2022/03/31 01:21:40;;;;;;;15.82;12.45;;;;;;;5.69;73.08;98139.28;1088273;54;20026;-80
2022/03/31 01:22:43;;;;;;;13.38;10.82;;;;;;;5.72;73.13;98139.78;1088255;54;20049;-79
2022/03/31 01:23:54;;;;;;;14.10;11.77;;;;;;;5.72;73.30;98136.28;1088237;54;20027;-80
2022/03/31 01:24:56;;;;;;;15.02;12.48;;;;;;;5.72;73.34;98142.44;1088285;54;20019;-79
2022/03/31 01:26:00;;;;;;;15.38;12.65;;;;;;;5.74;73.09;98139.59;1088274;54;20026;-79
2022/03/31 01:27:07;;;;;;;14.55;11.73;;;;;;;5.67;73.23;98136.75;1088250;54;20018;-79
2022/03/31 01:28:08;;;;;;;14.75;11.90;;;;;;;5.62;73.47;98125.81;1088266;54;20035;-79
2022/03/31 01:29:13;;;;;;;15.32;12.23;;;;;;;5.67;73.43;98130.66;1088189;54;20025;-80
2022/03/31 01:30:17;;;;;;;16.08;12.27;;;;;;;5.61;73.85;98132.09;1088109;54;20042;-79
2022/03/31 01:31:21;;;;;;;15.32;12.55;;;;;;;5.57;73.72;98131.59;1095944;39;20661;-79
2022/03/31 01:32:24;;;;;;;16.23;12.40;;;;;;;5.56;73.87;98129.94;1088284;54;20034;-79
2022/03/31 01:33:28;;;;;;;15.23;12.77;;;;;;;5.53;74.34;98130.25;1088248;54;20728;-78
2022/03/31 01:34:30;;;;;;;14.15;11.82;;;;;;;5.58;73.98;98130.63;1088199;54;20049;-78
2022/03/31 01:35:34;;;;;;;13.80;11.40;;;;;;;5.60;73.89;98127.78;1088223;54;20672;-78
2022/03/31 01:36:39;;;;;;;14.75;11.88;;;;;;;5.60;73.79;98128.66;1088267;54;20126;-78
2022/03/31 01:37:41;;;;;;;14.05;10.95;;;;;;;5.66;73.54;98121.03;1088269;54;20035;-78
2022/03/31 01:38:45;;;;;;;14.77;11.93;;;;;;;5.60;73.92;98118.03;1088224;54;20035;-78
2022/03/31 01:39:49;;;;;;;15.63;12.15;;;;;;;5.62;73.89;98120.53;1088231;54;20037;-78
2022/03/31 01:40:54;;;;;;;14.50;11.23;;;;;;;5.60;74.02;98118.03;1088198;54;20035;-78
2022/03/31 01:41:55;;;;;;;14.38;12.05;;;;;;;5.54;74.06;98123.16;1088231;54;20042;-78
2022/03/31 01:43:00;;;;;;;15.25;12.50;;;;;;;5.59;74.12;98126.97;1088114;54;20110;-78
2022/03/31 01:44:03;;;;;;;16.50;12.60;;;;;;;5.53;74.02;98110.88;1088223;54;20030;-79
2022/03/31 01:45:11;;;;;;;16.75;12.93;;;;;;;5.54;74.33;98115.19;1088316;46;20038;-78
2022/03/31 01:46:13;;;;;;;17.25;12.75;;;;;;;5.52;74.39;98104.75;1088251;54;20019;-78
2022/03/31 01:47:17;;;;;;;14.35;11.77;;;;;;;5.54;74.56;98112.53;1088231;54;20635;-78
2022/03/31 01:48:19;;;;;;;14.77;11.57;;;;;;;5.52;74.25;98114.50;1088220;54;20031;-78
2022/03/31 01:49:23;;;;;;;15.18;12.80;;;;;;;5.43;74.72;98111.84;1089379;46;20090;-79
2022/03/31 01:50:25;;;;;;;17.05;12.95;;;;;;;5.43;74.85;98106.53;1088208;54;20034;-79
2022/03/31 01:51:30;;;;;;;16.92;12.98;;;;;;;5.41;74.76;98111.16;1089244;46;20082;-78
2022/03/31 01:52:31;;;;;;;16.77;13.00;;;;;;;5.47;74.76;98109.69;1088629;39;20548;-79
2022/03/31 01:53:37;;;;;;;14.85;12.40;;;;;;;5.46;74.61;98102.72;1088177;54;20030;-78
2022/03/31 01:54:38;;;;;;;16.30;12.57;;;;;;;5.39;74.80;98099.88;1088021;54;20030;-78
2022/03/31 01:55:45;;;;;;;16.15;12.68;;;;;;;5.38;75.17;98103.53;1088089;54;20022;-78
2022/03/31 01:56:48;;;;;;;16.52;12.88;;;;;;;5.40;74.99;98098.88;1090707;39;20716;-78
2022/03/31 01:57:53;;;;;;;15.98;13.10;;;;;;;5.39;75.18;98099.06;1088195;54;20090;-78
2022/03/31 01:58:54;;;;;;;14.00;11.70;;;;;;;5.43;74.79;98095.94;1088213;54;20038;-77
2022/03/31 02:00:02;;;;;;;16.67;12.65;;;;;;;5.39;75.31;98099.88;1088194;54;20027;-78
2022/03/31 02:01:07;;;;;;;16.35;13.07;;;;;;;5.36;75.29;98094.91;1088177;54;20035;-76
2022/03/31 02:02:11;;;;;;;15.50;12.43;;;;;;;5.35;75.32;98098.56;1088193;54;20030;-77
2022/03/31 02:03:16;;;;;;;13.00;10.93;;;;;;;5.47;74.82;98099.09;1088200;54;20031;-78
2022/03/31 02:04:18;;;;;;;14.27;11.70;;;;;;;5.48;74.89;98098.09;1088131;54;20038;-79
2022/03/31 02:05:22;;;;;;;14.73;12.25;;;;;;;5.48;75.00;98092.81;1087802;54;20034;-79
2022/03/31 02:06:24;;;;;;;15.43;11.93;;;;;;;5.52;74.69;98093.31;1088219;54;20042;-78
2022/03/31 02:07:28;;;;;;;15.55;12.15;;;;;;;5.55;74.66;98093.81;1088227;54;20030;-79
2022/03/31 02:08:29;;;;;;;14.23;11.45;;;;;;;5.57;74.77;98097.16;1088152;54;20065;-78
2022/03/31 02:09:33;;;;;;;15.95;12.15;;;;;;;5.51;74.72;98091.66;1088185;54;20033;-79
2022/03/31 02:10:35;;;;;;;14.20;11.43;;;;;;;5.53;74.66;98087.84;1088184;54;20026;-80
2022/03/31 02:11:43;;;;;;;13.82;11.38;;;;;;;5.57;74.72;98089.19;1089128;39;20762;-78
2022/03/31 02:12:44;;;;;;;16.52;12.38;;;;;;;5.55;75.03;98093.81;1088053;54;20034;-78
2022/03/31 02:13:49;;;;;;;16.17;11.85;;;;;;;5.57;74.46;98091.03;1088195;54;20050;-78
2022/03/31 02:14:51;;;;;;;14.57;11.35;;;;;;;5.62;74.44;98086.06;1088042;54;20030;-79
2022/03/31 02:15:56;;;;;;;17.00;12.80;;;;;;;5.63;74.35;98090.38;1088192;54;20035;-78
2022/03/31 02:16:58;;;;;;;14.68;12.25;;;;;;;5.66;74.26;98084.75;1088631;39;20641;-78
2022/03/31 02:18:03;;;;;;;15.13;12.27;;;;;;;5.61;74.74;98081.75;1088150;54;20036;-78
2022/03/31 02:19:05;;;;;;;14.27;12.10;;;;;;;5.55;74.70;98082.41;1088193;54;20098;-78
2022/03/31 02:20:11;;;;;;;14.40;11.90;;;;;;;5.54;74.86;98089.50;1088097;54;20076;-78
2022/03/31 02:21:12;;;;;;;14.18;11.85;;;;;;;5.57;75.04;98086.53;1088215;54;20038;-78
2022/03/31 02:22:17;;;;;;;13.93;11.07;;;;;;;5.67;74.47;98081.09;1088117;54;20059;-78
2022/03/31 02:23:21;;;;;;;13.05;11.20;;;;;;;5.66;74.65;98087.41;1091645;39;20910;-78
2022/03/31 02:24:23;;;;;;;15.77;12.50;;;;;;;5.69;74.46;98078.28;1088126;54;20030;-78
2022/03/31 02:25:27;;;;;;;13.95;11.88;;;;;;;5.67;74.57;98082.91;1089842;31;20652;-79
2022/03/31 02:26:29;;;;;;;14.70;11.60;;;;;;;5.73;74.47;98083.13;1088198;54;20034;-78
2022/03/31 02:27:36;;;;;;;15.23;11.88;;;;;;;5.71;74.26;98087.75;1088167;54;20145;-78
2022/03/31 02:28:39;;;;;;;14.57;11.30;;;;;;;5.74;74.58;98079.47;1090129;39;20645;-78
2022/03/31 02:29:43;;;;;;;15.18;11.77;;;;;;;5.67;74.53;98075.78;1088177;54;20035;-79
2022/03/31 02:30:47;;;;;;;16.25;13.15;;;;;;;5.63;74.55;98080.59;1088138;54;20042;-79
2022/03/31 02:31:49;;;;;;;15.07;12.63;;;;;;;5.59;74.81;98073.13;1088188;54;20026;-78
2022/03/31 02:32:53;;;;;;;14.60;12.10;;;;;;;5.67;74.66;98077.63;1088074;54;20059;-79
2022/03/31 02:33:55;;;;;;;16.45;11.75;;;;;;;5.59;75.23;98081.06;1088161;54;20018;-78
2022/03/31 02:35:00;;;;;;;16.20;13.43;;;;;;;5.57;75.29;98075.13;1088159;54;20014;-78
2022/03/31 02:36:01;;;;;;;15.13;12.57;;;;;;;5.54;75.34;98078.09;1088809;46;20019;-79
2022/03/31 02:37:07;;;;;;;16.33;12.63;;;;;;;5.56;75.12;98082.22;1088224;54;20086;-78
2022/03/31 02:38:11;;;;;;;16.88;14.07;;;;;;;5.49;75.56;98075.06;1088372;54;20034;-79
2022/03/31 02:39:13;;;;;;;17.05;13.13;;;;;;;5.50;75.65;98085.53;1088493;54;20030;-78
2022/03/31 02:40:17;;;;;;;16.67;12.65;;;;;;;5.59;75.30;98081.06;1088418;54;20042;-78
2022/03/31 02:41:20;;;;;;;16.70;13.85;;;;;;;5.55;75.40;98088.50;1090073;46;20015;-78
2022/03/31 02:42:24;;;;;;;14.85;12.25;;;;;;;5.68;75.08;98082.75;1088370;54;20038;-78
2022/03/31 02:43:28;;;;;;;15.63;12.00;;;;;;;5.70;74.93;98075.47;1088358;54;20030;-79
2022/03/31 02:44:33;;;;;;;14.30;11.48;;;;;;;5.78;74.71;98085.28;1088577;46;20030;-78
2022/03/31 02:45:36;;;;;;;14.52;11.88;;;;;;;5.73;74.68;98080.47;1088396;54;20026;-78
2022/03/31 02:46:40;;;;;;;16.88;13.60;;;;;;;5.66;75.23;98084.75;1088927;46;20037;-78
2022/03/31 02:47:44;;;;;;;17.00;13.48;;;;;;;5.65;75.36;98071.66;1088621;46;20034;-78
2022/03/31 02:48:48;;;;;;;15.45;12.82;;;;;;;5.66;75.13;98084.75;1088267;47;20048;-78
2022/03/31 02:49:50;;;;;;;15.20;12.30;;;;;;;5.61;75.17;98076.44;1088207;54;20027;-79
2022/03/31 02:50:54;;;;;;;16.65;13.18;;;;;;;5.55;75.59;98077.09;1088171;54;20029;-80
2022/03/31 02:51:56;;;;;;;18.73;14.45;;;;;;;5.51;75.84;98073.94;1088134;54;20026;-78
2022/03/31 02:55:34;;;;;;;14.95;12.43;;;;;;;5.63;75.52;98082.41;1088183;54;20094;-79
2022/03/31 02:56:36;;;;;;;14.57;12.13;;;;;;;5.66;75.48;98078.59;1088173;54;20029;-79
2022/03/31 02:57:40;;;;;;;14.90;12.80;;;;;;;5.64;75.46;98070.81;1088175;54;20018;-79
2022/03/31 02:58:44;;;;;;;15.25;12.45;;;;;;;5.63;75.40;98075.28;1088132;54;20022;-80
2022/03/31 02:59:49;;;;;;;18.80;13.55;;;;;;;5.65;75.57;98069.84;1088130;54;20030;-80
2022/03/31 03:00:53;;;;;;;17.95;13.27;;;;;;;5.65;75.56;98069.84;1090355;39;20574;-79
2022/03/31 03:01:54;;;;;;;18.13;12.98;;;;;;;5.62;75.55;98067.50;1088149;54;20022;-78
2022/03/31 03:02:58;;;;;;;18.17;14.45;;;;;;;5.60;75.94;98057.06;1088013;54;20687;-78
2022/03/31 03:04:00;;;;;;;17.40;14.38;;;;;;;5.57;76.13;98054.72;1088074;54;20058;-79
2022/03/31 03:05:05;;;;;;;15.40;12.98;;;;;;;5.60;75.81;98056.22;1088155;54;20588;-79
2022/03/31 03:06:09;;;;;;;18.08;13.90;;;;;;;5.61;75.98;98066.69;1087606;54;20037;-78
2022/03/31 03:07:10;;;;;;;16.58;13.63;;;;;;;5.61;75.92;98056.09;1088149;54;20049;-79
2022/03/31 03:08:15;;;;;;;15.70;12.85;;;;;;;5.65;75.91;98055.72;1088075;54;20014;-79
2022/03/31 03:09:17;;;;;;;16.90;12.75;;;;;;;5.69;75.90;98052.59;1089529;39;20175;-78
2022/03/31 03:10:21;;;;;;;15.70;13.30;;;;;;;5.68;75.87;98050.13;1088108;54;20050;-78
2022/03/31 03:11:22;;;;;;;15.90;13.27;;;;;;;5.68;75.78;98055.41;1088185;54;20023;-78
2022/03/31 03:12:27;;;;;;;16.58;13.23;;;;;;;5.74;75.46;98058.25;1088048;54;20026;-78
2022/03/31 03:13:28;;;;;;;17.73;13.10;;;;;;;5.75;75.38;98053.78;1088020;54;20050;-79
2022/03/31 03:14:35;;;;;;;14.70;12.43;;;;;;;5.80;75.24;98047.97;1089930;46;20034;-78
2022/03/31 03:15:40;;;;;;;15.63;12.35;;;;;;;5.82;75.27;98043.34;1088059;54;20733;-79
2022/03/31 03:16:41;;;;;;;16.63;12.80;;;;;;;5.82;75.20;98043.34;1088097;54;20038;-78
2022/03/31 03:17:47;;;;;;;18.27;14.15;;;;;;;5.76;75.25;98047.47;1088057;54;20031;-78
2022/03/31 03:18:49;;;;;;;15.82;13.05;;;;;;;5.80;75.31;98042.69;1088026;54;20050;-79
2022/03/31 03:19:53;;;;;;;17.90;13.95;;;;;;;5.76;75.11;98036.88;1088078;54;20023;-78
2022/03/31 03:20:57;;;;;;;16.48;13.27;;;;;;;5.72;75.23;98036.38;1088087;54;20026;-79
2022/03/31 03:21:59;;;;;;;16.25;13.80;;;;;;;5.71;75.30;98044.50;1089551;39;20650;-78
2022/03/31 03:23:03;;;;;;;16.42;12.93;;;;;;;5.71;75.69;98040.00;1087982;54;20053;-79
2022/03/31 03:24:05;;;;;;;17.73;13.02;;;;;;;5.75;75.47;98038.72;1088035;54;20030;-79
2022/03/31 03:25:11;;;;;;;17.38;13.63;;;;;;;5.75;75.12;98038.72;1088113;54;20026;-79
2022/03/31 03:26:12;;;;;;;19.67;13.90;;;;;;;5.70;75.10;98037.53;1088087;54;20062;-79
2022/03/31 03:27:16;;;;;;;17.65;14.13;;;;;;;5.68;75.23;98029.72;1088128;54;20038;-79
2022/03/31 03:28:21;;;;;;;18.85;14.30;;;;;;;5.66;75.46;98033.53;1088046;54;20034;-79
2022/03/31 03:29:22;;;;;;;16.92;13.48;;;;;;;5.68;75.40;98029.72;1088114;54;20042;-79
2022/03/31 03:30:29;;;;;;;17.98;14.05;;;;;;;5.70;75.43;98033.06;1088062;54;20057;-79
2022/03/31 03:31:31;;;;;;;18.75;14.55;;;;;;;5.70;75.49;98035.69;1088074;54;20030;-79
2022/03/31 03:32:36;;;;;;;17.08;12.57;;;;;;;5.72;75.46;98025.78;1087997;54;20098;-79
2022/03/31 03:33:38;;;;;;;18.08;13.10;;;;;;;5.82;75.26;98036.22;1087970;54;20038;-79
2022/03/31 03:34:42;;;;;;;16.20;13.32;;;;;;;5.81;74.90;98029.25;1088391;47;20037;-79
2022/03/31 03:35:44;;;;;;;16.25;13.40;;;;;;;5.82;75.02;98030.09;1087978;54;20045;-78
2022/03/31 03:36:48;;;;;;;16.98;13.00;;;;;;;5.77;75.03;98034.06;1088042;54;20026;-78
2022/03/31 03:37:49;;;;;;;17.15;13.32;;;;;;;5.69;75.09;98028.75;1088095;54;20023;-79
2022/03/31 03:38:53;;;;;;;16.38;13.32;;;;;;;5.69;75.58;98030.56;1088035;54;20030;-78
2022/03/31 03:39:55;;;;;;;17.15;13.18;;;;;;;5.66;75.28;98026.44;1088036;54;20039;-78
2022/03/31 03:40:59;;;;;;;17.00;13.18;;;;;;;5.69;75.36;98031.38;1088030;54;20031;-78
2022/03/31 03:42:01;;;;;;;18.80;13.27;;;;;;;5.77;75.04;98028.75;1087948;54;20047;-78
2022/03/31 03:43:05;;;;;;;18.27;13.65;;;;;;;5.74;75.43;98023.78;1087775;54;20042;-77
2022/03/31 03:44:07;;;;;;;18.77;13.10;;;;;;;5.72;75.14;98031.06;1090133;47;20015;-78
2022/03/31 03:45:13;;;;;;;19.27;14.32;;;;;;;5.70;75.36;98022.44;1088020;54;20029;-78
2022/03/31 03:46:18;;;;;;;17.33;14.13;;;;;;;5.73;75.32;98030.09;1088035;54;20045;-78
2022/03/31 03:47:23;;;;;;;17.48;13.30;;;;;;;5.76;75.25;98027.09;1088026;54;20038;-78
2022/03/31 03:48:25;;;;;;;16.58;13.15;;;;;;;5.78;75.27;98024.28;1087964;54;20675;-79
2022/03/31 03:49:30;;;;;;;17.38;14.02;;;;;;;5.71;75.46;98024.09;1088057;54;20046;-78
2022/03/31 03:50:32;;;;;;;20.23;14.85;;;;;;;5.69;75.30;98026.09;1088023;54;20035;-78
2022/03/31 03:51:36;;;;;;;18.48;14.48;;;;;;;5.71;75.66;98028.59;1088027;54;20046;-78
2022/03/31 03:52:39;;;;;;;17.77;13.88;;;;;;;5.71;75.41;98029.41;1088014;54;20038;-78
2022/03/31 03:53:43;;;;;;;17.05;14.15;;;;;;;5.71;75.43;98024.09;1087942;54;20670;-78
2022/03/31 03:54:45;;;;;;;19.27;14.30;;;;;;;5.70;75.39;98017.16;1087968;54;20018;-78
2022/03/31 03:55:50;;;;;;;17.45;14.23;;;;;;;5.75;75.36;98020.16;1087957;54;20031;-78
2022/03/31 03:56:51;;;;;;;16.08;13.07;;;;;;;5.78;75.24;98025.09;1088023;54;20115;-78
2022/03/31 03:57:56;;;;;;;20.08;15.07;;;;;;;5.70;75.43;98019.78;1088035;54;20034;-79
2022/03/31 03:58:57;;;;;;;19.00;14.10;;;;;;;5.74;75.51;98018.50;1088038;54;20584;-78
2022/03/31 04:00:02;;;;;;;19.13;14.45;;;;;;;5.77;75.06;98012.84;1088051;54;20042;-78
2022/03/31 04:01:03;;;;;;;17.65;13.75;;;;;;;5.78;75.26;98017.16;1088032;54;20045;-78
2022/03/31 04:02:11;;;;;;;18.38;13.60;;;;;;;5.74;74.90;98012.34;1088025;54;20115;-78
2022/03/31 04:03:12;;;;;;;18.33;14.60;;;;;;;5.77;75.02;98012.84;1087957;54;20061;-79
2022/03/31 04:04:16;;;;;;;18.88;14.10;;;;;;;5.78;75.06;98011.84;1087980;54;20058;-79
2022/03/31 04:05:19;;;;;;;17.73;14.40;;;;;;;5.85;74.66;98016.50;1088029;54;20042;-78
2022/03/31 04:06:23;;;;;;;21.70;15.20;;;;;;;5.85;74.07;98013.88;1087807;54;20512;-79
2022/03/31 04:07:25;;;;;;;20.75;15.48;;;;;;;5.65;74.67;98014.16;1088009;54;20035;-79
2022/03/31 04:08:29;;;;;;;18.63;14.43;;;;;;;5.61;75.06;98018.13;1087978;54;20027;-78
2022/03/31 04:09:31;;;;;;;22.63;15.73;;;;;;;5.63;74.79;98008.19;1088025;54;20742;-79
2022/03/31 04:10:36;;;;;;;17.05;13.98;;;;;;;5.63;74.81;98006.34;1088020;54;20034;-78
2022/03/31 04:11:38;;;;;;;18.88;14.30;;;;;;;5.67;74.75;98006.84;1088010;54;20678;-78
2022/03/31 04:12:43;;;;;;;21.38;14.85;;;;;;;5.70;74.71;98008.38;1087970;54;20666;-80
2022/03/31 04:13:46;;;;;;;17.92;13.85;;;;;;;5.78;74.44;98014.50;1087838;54;20035;-78
2022/03/31 04:14:50;;;;;;;17.30;13.88;;;;;;;5.81;74.38;98015.16;1087943;54;20034;-78
2022/03/31 04:15:54;;;;;;;17.25;12.55;;;;;;;5.90;74.13;98011.53;1087940;54;20039;-78
2022/03/31 04:16:56;;;;;;;17.17;13.23;;;;;;;5.97;73.76;98006.41;1088791;46;20034;-78
2022/03/31 04:18:05;;;;;;;17.33;13.57;;;;;;;5.93;73.85;98005.91;1089855;47;20034;-78
2022/03/31 04:19:08;;;;;;;18.02;12.95;;;;;;;5.98;73.63;98008.06;1088396;54;20707;-77
2022/03/31 04:20:14;;;;;;;19.00;13.70;;;;;;;5.92;73.70;98005.06;1088370;54;20090;-78
2022/03/31 04:21:16;;;;;;;19.42;14.00;;;;;;;5.93;73.78;98011.22;1088328;54;20697;-78
2022/03/31 04:22:21;;;;;;;18.48;14.18;;;;;;;5.93;73.80;98003.25;1088367;54;20030;-77
2022/03/31 04:23:23;;;;;;;19.98;14.68;;;;;;;5.87;73.96;98011.84;1088233;54;20037;-78
2022/03/31 04:24:27;;;;;;;18.13;13.85;;;;;;;5.87;74.11;98009.19;1088287;54;20059;-77
2022/03/31 04:25:29;;;;;;;19.08;14.57;;;;;;;5.82;73.91;98006.22;1088310;54;20047;-78
2022/03/31 04:26:34;;;;;;;19.48;14.63;;;;;;;5.77;74.17;98006.72;1089000;46;20030;-78
2022/03/31 04:27:37;;;;;;;20.50;15.13;;;;;;;5.80;74.03;98011.72;1088269;54;20030;-79
2022/03/31 04:28:41;;;;;;;18.70;14.43;;;;;;;5.84;73.71;98009.56;1088236;54;20026;-78
2022/03/31 04:29:43;;;;;;;19.13;13.48;;;;;;;5.82;74.10;98014.19;1097241;39;20685;-80
2022/03/31 04:30:47;;;;;;;18.70;14.25;;;;;;;5.82;73.82;98012.34;1088285;54;20096;-78
2022/03/31 04:31:49;;;;;;;20.05;14.35;;;;;;;5.84;73.95;98006.91;1088305;54;20030;-79
2022/03/31 04:32:54;;;;;;;19.60;15.52;;;;;;;5.87;73.57;98009.19;1088399;54;20018;-78
2022/03/31 04:33:58;;;;;;;18.30;13.65;;;;;;;5.90;73.69;98011.53;1088232;54;20035;-78
2022/03/31 04:35:03;;;;;;;18.00;13.95;;;;;;;5.91;73.69;98007.91;1088381;54;20046;-78
2022/03/31 04:36:05;;;;;;;18.75;14.07;;;;;;;5.90;73.62;98009.69;1088353;54;20018;-78
2022/03/31 04:37:09;;;;;;;18.98;14.50;;;;;;;5.90;73.67;98011.53;1088342;54;20721;-79
2022/03/31 04:38:13;;;;;;;18.27;13.82;;;;;;;5.96;73.51;98005.56;1088352;54;20019;-78
2022/03/31 04:39:16;;;;;;;20.33;14.65;;;;;;;5.96;73.41;98002.91;1088402;54;20031;-79
2022/03/31 04:40:20;;;;;;;17.33;14.00;;;;;;;5.94;73.30;98003.09;1088809;46;20030;-78
2022/03/31 04:41:22;;;;;;;16.52;13.23;;;;;;;5.98;73.09;98003.56;1088316;54;20030;-79
2022/03/31 04:42:27;;;;;;;18.50;15.35;;;;;;;5.93;73.53;98003.25;1088383;54;20035;-78
2022/03/31 04:43:29;;;;;;;18.45;13.80;;;;;;;5.87;73.54;98011.84;1088281;54;20027;-81
2022/03/31 04:44:34;;;;;;;19.90;15.00;;;;;;;5.82;73.82;98009.69;1088361;54;20023;-81
2022/03/31 04:45:35;;;;;;;18.08;13.73;;;;;;;5.80;73.80;98006.41;1088374;54;20038;-81
2022/03/31 04:46:41;;;;;;;20.25;15.25;;;;;;;5.82;73.46;98007.03;1088268;54;20018;-80
2022/03/31 04:47:42;;;;;;;19.25;14.45;;;;;;;5.87;73.46;98012.69;1088067;54;20038;-80
2022/03/31 04:48:47;;;;;;;24.63;14.45;;;;;;;5.89;73.45;98009.88;1102305;39;20464;-79
2022/03/31 04:49:54;;;;;;;18.30;13.23;;;;;;;5.94;73.30;98013.69;1091018;39;20588;-80
2022/03/31 04:50:56;;;;;;;17.85;13.15;;;;;;;6.02;73.06;98010.25;1087874;54;20034;-80
2022/03/31 04:52:02;;;;;;;18.13;13.40;;;;;;;5.98;72.82;98003.56;1087682;54;20022;-79
2022/03/31 04:53:06;;;;;;;20.50;13.95;;;;;;;5.95;73.34;98014.53;1088101;46;20030;-82
2022/03/31 04:54:10;;;;;;;17.92;13.77;;;;;;;5.97;73.15;98017.00;1088190;54;20038;-81
2022/03/31 04:55:12;;;;;;;17.83;14.32;;;;;;;5.92;73.42;98014.84;1088251;54;20027;-82
2022/03/31 04:56:18;;;;;;;18.65;14.45;;;;;;;6.00;73.08;98001.63;1088002;54;20018;-81
2022/03/31 04:57:21;;;;;;;19.48;14.07;;;;;;;5.95;72.96;98003.94;1088043;54;20019;-80
2022/03/31 04:58:28;;;;;;;19.00;14.07;;;;;;;5.89;72.95;98005.41;1087892;54;20061;-81
2022/03/31 04:59:30;;;;;;;18.98;14.10;;;;;;;5.87;73.19;98003.91;1088137;54;20061;-82